Hollister, MO

6:10 AM CDT on July 27, 2016 (GMT -0500)
Branson | | Change Station

Elev 1302 ft 36.53 °N, 93.20 °W | Updated 15 minutes ago

Fog
Fog
73 °F
Feels Like 73 °F
N
8
Wind Variable Wind from ESE

Today
High -- | Low -- °F
--% Chance of Precip.
Yesterday
High -- | Low -- °F
Precip. -- in
Pressure 30.01 in
Visibility 0.5 miles
Clouds Overcast 200 ft
Dew Point 73 °F
Humidity 100%
Rainfall 0.00 in
Snow Depth Not available.
6:15 AM 8:22 PM
Last Quarter, 44% visible
METAR KBBG 271055Z AUTO 11007KT 1/2SM FG OVC002 23/23 A3001 RMK AO2 LTG DSNT N
Pressure 30.01 in
Visibility 0.5 miles
Clouds Overcast 200 ft
Dew Point 73 °F
Humidity 100%
Rainfall 0.00 in
Snow Depth Not available.
6:15 AM 8:22 PM
Last Quarter, 44% visible
METAR KBBG 271055Z AUTO 11007KT 1/2SM FG OVC002 23/23 A3001 RMK AO2 LTG DSNT N

10-Day Weather Forecast

Almanac

Astronomy

Jul. 27, 2016 Rise Set
Actual Time
Civil Twilight
Nautical Twilight
Astronomical Twilight
Moon
Length of Visible Light
Length of Day
Tomorrow will be .
, % of the Moon is Illuminated

Today's Extremes

State Highs State Lows

Community

WunderPhotos

Upload Photos

1,927,825 photos uploaded!

WunderBlog® & News

Nearby

Air Quality

  Air Quality AQ Index Pollutant
Not available.

Snow Depth

Station Depth Elevation

Earthquake Activity

City Distance Mag. Time & Date
Minimum magnitude displayed is 2.5.

Coastal Water Temperatures

Place Temperature

Stations

Nearby Weather Stations

Station Location Temp. Windchill Dew Point Humidity Wind Precip. Elev Updated Type
                   

Watches & Warnings

There are currently no watches in effect.